Yonges Island, South Carolina
Current Conditions -  °F | °C
As of 8:35 PM on Sunday 23 Nov 2014 (Local Time) from KJZI Reporting Station
Haze Haze  
Wind Chill: 70°   Ceiling: 400
Heat Index: 70°   Visibility: 3mi
Dew Point: 70°   Wind: 13mph
Humidity: 100%   Direction: 210°SSW
Pressure: 29.86"   Gusts: 17mph
Location:  32.7025°N, 80.284°W
Report Text: KJZI 240135Z AUTO 21011G15KT 3SM BR OVC004 21/21 A2986 RMK A02 LTG DSNT N AND NE P000
Loading
Personal Weather Stations






























Interactive Weather Map New forecast layout! Learn more

10-Day Weather Forecast

Advertisements
Track Severe Weather on mobile